Main page
METAR-TAF:

METAR-TAF

Airports :

Fujairah International Airport

Fujairah, United Arab Emirates

latitude: 25-06N, longitude: 056-20E, elevation: 28 m

Current weather observation

The report was made 1 hour and 0 minutes ago, at 00:00 UTC
Wind 5 kt from the West/Northwest
Temperature 17°C
Humidity 48%
Pressure 1017 hPa
Visibility: 5000 m
haze

METAR: OMFJ 180000Z 30005KT 5000 HZ NSC 17/06 Q1017 RMK A3005

Time: 05:00 (01:00 UTC)

Forecast

The report was made 2 hours and 0 minutes ago, at 23:00 UTC
Forecast valid from 18 at 00 UTC to 19 at 06 UTC
Wind 4 kt from the West/Northwest
Visibility: 6000 m
Temporary
from 18 at 00 UTC to 18 at 05 UTC
Visibility: 4000 m
haze
Becoming
from 18 at 05 UTC to 18 at 07 UTC
Wind 8 kt from the East
Becoming
from 18 at 21 UTC to 18 at 23 UTC
Wind 6 kt from the West/Northwest

TAF: OMFJ 172300Z 1800/1906 29004KT 6000 NSC TEMPO 1800/1805 4000 HZ BECMG 1805/1807 09008KT BECMG 1821/1823 29006KT

Weather observations and forecasts of more than 4000 airports (METAR and TAF reports).

The available stations are represented by yellow and red dots on the map.

Hover mouse over dot to see the name of the station.

Then click to see weather observations and forecasts.

To change the map : click on the green buttons with a black cross to zoom in, on the green button with a dash to zoom out, or on the green arrows for adjacent maps.


METAR-TAF: